sensor_id;sensor_type;location;lat;lon;timestamp;P1;durP1;ratioP1;P2;durP2;ratioP2
51146;SDS011;37207;53.060;18.726;2023-07-22T00:01:27;2.70;;;2.40;;
51146;SDS011;37207;53.060;18.726;2023-07-22T00:03:53;3.00;;;2.00;;
51146;SDS011;37207;53.060;18.726;2023-07-22T00:06:20;2.50;;;2.10;;
51146;SDS011;37207;53.060;18.726;2023-07-22T00:08:46;3.20;;;2.40;;
51146;SDS011;37207;53.060;18.726;2023-07-22T00:11:13;4.80;;;2.00;;
51146;SDS011;37207;53.060;18.726;2023-07-22T00:13:39;3.90;;;2.40;;
51146;SDS011;37207;53.060;18.726;2023-07-22T00:16:06;2.80;;;2.20;;
51146;SDS011;37207;53.060;18.726;2023-07-22T00:18:34;2.50;;;2.30;;
51146;SDS011;37207;53.060;18.726;2023-07-22T00:21:00;4.80;;;2.30;;
51146;SDS011;37207;53.060;18.726;2023-07-22T00:23:27;2.70;;;2.50;;
51146;SDS011;37207;53.060;18.726;2023-07-22T00:25:54;3.00;;;2.80;;
51146;SDS011;37207;53.060;18.726;2023-07-22T00:28:20;4.80;;;2.90;;
51146;SDS011;37207;53.060;18.726;2023-07-22T00:30:47;3.40;;;3.10;;
51146;SDS011;37207;53.060;18.726;2023-07-22T00:33:15;6.60;;;3.30;;
51146;SDS011;37207;53.060;18.726;2023-07-22T00:35:42;10.20;;;3.50;;
51146;SDS011;37207;53.060;18.726;2023-07-22T00:38:09;4.80;;;2.70;;
51146;SDS011;37207;53.060;18.726;2023-07-22T00:40:36;2.70;;;2.40;;
51146;SDS011;37207;53.060;18.726;2023-07-22T00:43:03;2.80;;;2.50;;
51146;SDS011;37207;53.060;18.726;2023-07-22T00:45:31;2.90;;;2.50;;
51146;SDS011;37207;53.060;18.726;2023-07-22T00:47:57;8.30;;;2.40;;
51146;SDS011;37207;53.060;18.726;2023-07-22T00:50:24;2.70;;;2.50;;
51146;SDS011;37207;53.060;18.726;2023-07-22T00:52:52;2.80;;;2.60;;
51146;SDS011;37207;53.060;18.726;2023-07-22T00:55:19;4.60;;;2.50;;
51146;SDS011;37207;53.060;18.726;2023-07-22T00:57:46;2.70;;;2.50;;
51146;SDS011;37207;53.060;18.726;2023-07-22T01:00:13;2.30;;;2.10;;
51146;SDS011;37207;53.060;18.726;2023-07-22T01:02:42;2.70;;;2.50;;
51146;SDS011;37207;53.060;18.726;2023-07-22T01:05:09;2.70;;;2.50;;
51146;SDS011;37207;53.060;18.726;2023-07-22T01:07:38;3.00;;;2.80;;
51146;SDS011;37207;53.060;18.726;2023-07-22T01:10:06;2.70;;;2.40;;
51146;SDS011;37207;53.060;18.726;2023-07-22T01:12:34;6.10;;;2.80;;
51146;SDS011;37207;53.060;18.726;2023-07-22T01:15:01;3.20;;;2.60;;
51146;SDS011;37207;53.060;18.726;2023-07-22T01:17:29;3.40;;;2.90;;
51146;SDS011;37207;53.060;18.726;2023-07-22T01:19:57;3.70;;;2.70;;
51146;SDS011;37207;53.060;18.726;2023-07-22T01:22:24;3.40;;;2.70;;
51146;SDS011;37207;53.060;18.726;2023-07-22T01:24:51;3.80;;;2.70;;
51146;SDS011;37207;53.060;18.726;2023-07-22T01:27:18;3.10;;;2.90;;
51146;SDS011;37207;53.060;18.726;2023-07-22T01:29:46;2.90;;;2.70;;
51146;SDS011;37207;53.060;18.726;2023-07-22T01:32:12;3.20;;;2.70;;
51146;SDS011;37207;53.060;18.726;2023-07-22T01:34:39;3.70;;;2.90;;
51146;SDS011;37207;53.060;18.726;2023-07-22T01:37:06;4.80;;;2.40;;
51146;SDS011;37207;53.060;18.726;2023-07-22T01:39:33;3.30;;;2.70;;
51146;SDS011;37207;53.060;18.726;2023-07-22T01:41:59;3.30;;;2.60;;
51146;SDS011;37207;53.060;18.726;2023-07-22T01:44:26;5.60;;;2.70;;
51146;SDS011;37207;53.060;18.726;2023-07-22T01:46:52;2.90;;;2.70;;
51146;SDS011;37207;53.060;18.726;2023-07-22T01:49:19;2.90;;;2.60;;
51146;SDS011;37207;53.060;18.726;2023-07-22T01:51:46;2.40;;;2.20;;
51146;SDS011;37207;53.060;18.726;2023-07-22T01:54:12;3.40;;;2.50;;
51146;SDS011;37207;53.060;18.726;2023-07-22T01:56:39;4.80;;;2.80;;
51146;SDS011;37207;53.060;18.726;2023-07-22T01:59:06;4.00;;;2.60;;
51146;SDS011;37207;53.060;18.726;2023-07-22T02:01:32;5.80;;;2.40;;
51146;SDS011;37207;53.060;18.726;2023-07-22T02:03:59;2.50;;;2.30;;
51146;SDS011;37207;53.060;18.726;2023-07-22T02:06:26;6.70;;;3.30;;
51146;SDS011;37207;53.060;18.726;2023-07-22T02:08:53;5.30;;;2.90;;
51146;SDS011;37207;53.060;18.726;2023-07-22T02:11:20;17.30;;;3.60;;
51146;SDS011;37207;53.060;18.726;2023-07-22T02:13:46;3.50;;;2.80;;
51146;SDS011;37207;53.060;18.726;2023-07-22T02:16:13;4.40;;;2.80;;
51146;SDS011;37207;53.060;18.726;2023-07-22T02:18:39;3.00;;;2.80;;
51146;SDS011;37207;53.060;18.726;2023-07-22T02:21:06;2.90;;;2.60;;
51146;SDS011;37207;53.060;18.726;2023-07-22T02:23:33;11.70;;;3.30;;
51146;SDS011;37207;53.060;18.726;2023-07-22T02:26:00;3.20;;;2.90;;
51146;SDS011;37207;53.060;18.726;2023-07-22T02:28:27;3.40;;;3.10;;
51146;SDS011;37207;53.060;18.726;2023-07-22T02:30:54;8.80;;;3.60;;
51146;SDS011;37207;53.060;18.726;2023-07-22T02:33:21;6.10;;;3.00;;
51146;SDS011;37207;53.060;18.726;2023-07-22T02:35:48;3.60;;;3.30;;
51146;SDS011;37207;53.060;18.726;2023-07-22T02:38:15;3.80;;;3.60;;
51146;SDS011;37207;53.060;18.726;2023-07-22T02:40:42;10.40;;;3.20;;
51146;SDS011;37207;53.060;18.726;2023-07-22T02:43:10;7.40;;;3.90;;
51146;SDS011;37207;53.060;18.726;2023-07-22T02:45:36;4.00;;;3.10;;
51146;SDS011;37207;53.060;18.726;2023-07-22T02:48:03;3.40;;;3.20;;
51146;SDS011;37207;53.060;18.726;2023-07-22T02:50:30;3.90;;;3.20;;
51146;SDS011;37207;53.060;18.726;2023-07-22T02:52:57;4.00;;;3.30;;
51146;SDS011;37207;53.060;18.726;2023-07-22T02:55:24;4.10;;;3.00;;
51146;SDS011;37207;53.060;18.726;2023-07-22T02:57:50;3.60;;;3.30;;
51146;SDS011;37207;53.060;18.726;2023-07-22T03:00:17;9.30;;;4.10;;
51146;SDS011;37207;53.060;18.726;2023-07-22T03:02:52;5.70;;;3.50;;
51146;SDS011;37207;53.060;18.726;2023-07-22T03:05:20;9.80;;;3.20;;
51146;SDS011;37207;53.060;18.726;2023-07-22T03:07:47;7.60;;;3.70;;
51146;SDS011;37207;53.060;18.726;2023-07-22T03:10:14;4.00;;;3.70;;
51146;SDS011;37207;53.060;18.726;2023-07-22T03:12:40;5.00;;;3.70;;
51146;SDS011;37207;53.060;18.726;2023-07-22T03:15:07;5.90;;;3.60;;
51146;SDS011;37207;53.060;18.726;2023-07-22T03:17:35;4.50;;;3.50;;
51146;SDS011;37207;53.060;18.726;2023-07-22T03:20:03;3.60;;;3.40;;
51146;SDS011;37207;53.060;18.726;2023-07-22T03:22:36;3.60;;;3.30;;
51146;SDS011;37207;53.060;18.726;2023-07-22T03:25:03;3.20;;;3.00;;
51146;SDS011;37207;53.060;18.726;2023-07-22T03:27:34;3.00;;;2.80;;
51146;SDS011;37207;53.060;18.726;2023-07-22T03:30:02;3.80;;;3.50;;
51146;SDS011;37207;53.060;18.726;2023-07-22T03:32:29;3.10;;;2.90;;
51146;SDS011;37207;53.060;18.726;2023-07-22T03:34:56;3.80;;;3.50;;
51146;SDS011;37207;53.060;18.726;2023-07-22T03:37:22;4.30;;;3.90;;
51146;SDS011;37207;53.060;18.726;2023-07-22T03:39:49;3.80;;;3.30;;
51146;SDS011;37207;53.060;18.726;2023-07-22T03:42:17;5.60;;;3.60;;
51146;SDS011;37207;53.060;18.726;2023-07-22T03:44:43;6.10;;;3.30;;
51146;SDS011;37207;53.060;18.726;2023-07-22T03:47:10;3.70;;;3.40;;
51146;SDS011;37207;53.060;18.726;2023-07-22T03:49:36;5.70;;;3.40;;
51146;SDS011;37207;53.060;18.726;2023-07-22T03:52:03;3.70;;;3.30;;
51146;SDS011;37207;53.060;18.726;2023-07-22T03:54:30;4.00;;;3.70;;
51146;SDS011;37207;53.060;18.726;2023-07-22T03:56:56;5.30;;;3.90;;
51146;SDS011;37207;53.060;18.726;2023-07-22T03:59:23;4.40;;;3.70;;
51146;SDS011;37207;53.060;18.726;2023-07-22T04:01:49;4.00;;;3.70;;
51146;SDS011;37207;53.060;18.726;2023-07-22T04:04:16;5.70;;;3.70;;
51146;SDS011;37207;53.060;18.726;2023-07-22T04:06:42;5.40;;;4.20;;
51146;SDS011;37207;53.060;18.726;2023-07-22T04:09:09;4.00;;;2.90;;
51146;SDS011;37207;53.060;18.726;2023-07-22T04:11:35;4.20;;;3.80;;
51146;SDS011;37207;53.060;18.726;2023-07-22T04:14:02;4.10;;;3.50;;
51146;SDS011;37207;53.060;18.726;2023-07-22T04:16:28;6.20;;;3.90;;
51146;SDS011;37207;53.060;18.726;2023-07-22T04:18:55;3.40;;;3.20;;
51146;SDS011;37207;53.060;18.726;2023-07-22T04:21:22;13.80;;;3.20;;
51146;SDS011;37207;53.060;18.726;2023-07-22T04:23:48;3.10;;;2.90;;
51146;SDS011;37207;53.060;18.726;2023-07-22T04:26:15;8.30;;;3.30;;
51146;SDS011;37207;53.060;18.726;2023-07-22T04:28:42;3.50;;;3.20;;
51146;SDS011;37207;53.060;18.726;2023-07-22T04:31:08;9.50;;;3.20;;
51146;SDS011;37207;53.060;18.726;2023-07-22T04:33:36;3.30;;;3.00;;
51146;SDS011;37207;53.060;18.726;2023-07-22T04:36:02;4.40;;;2.60;;
51146;SDS011;37207;53.060;18.726;2023-07-22T04:38:29;4.70;;;3.00;;
51146;SDS011;37207;53.060;18.726;2023-07-22T04:40:56;4.50;;;3.40;;
51146;SDS011;37207;53.060;18.726;2023-07-22T04:43:22;3.70;;;3.30;;
51146;SDS011;37207;53.060;18.726;2023-07-22T04:45:49;4.00;;;3.10;;
51146;SDS011;37207;53.060;18.726;2023-07-22T04:48:16;3.40;;;3.20;;
51146;SDS011;37207;53.060;18.726;2023-07-22T04:50:44;2.80;;;2.60;;
51146;SDS011;37207;53.060;18.726;2023-07-22T04:53:11;3.90;;;2.60;;
51146;SDS011;37207;53.060;18.726;2023-07-22T04:55:42;5.30;;;2.50;;
51146;SDS011;37207;53.060;18.726;2023-07-22T04:58:08;3.10;;;2.30;;
51146;SDS011;37207;53.060;18.726;2023-07-22T05:00:37;4.40;;;2.90;;
51146;SDS011;37207;53.060;18.726;2023-07-22T05:03:04;3.10;;;2.80;;
51146;SDS011;37207;53.060;18.726;2023-07-22T05:05:31;3.60;;;3.10;;
51146;SDS011;37207;53.060;18.726;2023-07-22T05:07:59;2.80;;;2.60;;
51146;SDS011;37207;53.060;18.726;2023-07-22T05:10:25;14.20;;;3.20;;
51146;SDS011;37207;53.060;18.726;2023-07-22T05:12:52;4.20;;;2.80;;
51146;SDS011;37207;53.060;18.726;2023-07-22T05:15:18;2.80;;;2.50;;
51146;SDS011;37207;53.060;18.726;2023-07-22T05:17:45;9.90;;;2.70;;
51146;SDS011;37207;53.060;18.726;2023-07-22T05:20:12;3.10;;;2.80;;
51146;SDS011;37207;53.060;18.726;2023-07-22T05:22:39;2.90;;;2.50;;
51146;SDS011;37207;53.060;18.726;2023-07-22T05:25:06;3.10;;;2.80;;
51146;SDS011;37207;53.060;18.726;2023-07-22T05:27:34;3.70;;;2.80;;
51146;SDS011;37207;53.060;18.726;2023-07-22T05:30:00;5.50;;;3.80;;
51146;SDS011;37207;53.060;18.726;2023-07-22T05:32:30;3.50;;;3.20;;
51146;SDS011;37207;53.060;18.726;2023-07-22T05:34:56;3.90;;;3.60;;
51146;SDS011;37207;53.060;18.726;2023-07-22T05:37:24;10.40;;;3.50;;
51146;SDS011;37207;53.060;18.726;2023-07-22T05:39:51;6.40;;;4.00;;
51146;SDS011;37207;53.060;18.726;2023-07-22T05:42:18;6.20;;;5.00;;
51146;SDS011;37207;53.060;18.726;2023-07-22T05:44:44;6.60;;;5.20;;
51146;SDS011;37207;53.060;18.726;2023-07-22T05:47:11;5.10;;;4.60;;
51146;SDS011;37207;53.060;18.726;2023-07-22T05:49:37;4.60;;;4.10;;
51146;SDS011;37207;53.060;18.726;2023-07-22T05:52:04;6.80;;;5.30;;
51146;SDS011;37207;53.060;18.726;2023-07-22T05:54:31;7.20;;;6.10;;
51146;SDS011;37207;53.060;18.726;2023-07-22T05:56:58;6.20;;;5.50;;
51146;SDS011;37207;53.060;18.726;2023-07-22T05:59:24;5.50;;;5.00;;
51146;SDS011;37207;53.060;18.726;2023-07-22T06:01:51;4.70;;;4.30;;
51146;SDS011;37207;53.060;18.726;2023-07-22T06:04:17;5.50;;;4.90;;
51146;SDS011;37207;53.060;18.726;2023-07-22T06:06:44;9.30;;;4.90;;
51146;SDS011;37207;53.060;18.726;2023-07-22T06:09:10;5.20;;;4.70;;
51146;SDS011;37207;53.060;18.726;2023-07-22T06:11:37;6.50;;;5.30;;
51146;SDS011;37207;53.060;18.726;2023-07-22T06:14:03;6.30;;;5.70;;
51146;SDS011;37207;53.060;18.726;2023-07-22T06:16:30;6.10;;;5.50;;
51146;SDS011;37207;53.060;18.726;2023-07-22T06:18:56;6.90;;;6.30;;
51146;SDS011;37207;53.060;18.726;2023-07-22T06:21:23;6.90;;;4.30;;
51146;SDS011;37207;53.060;18.726;2023-07-22T06:23:49;5.50;;;4.60;;
51146;SDS011;37207;53.060;18.726;2023-07-22T06:26:16;2.80;;;2.50;;
51146;SDS011;37207;53.060;18.726;2023-07-22T06:28:43;3.40;;;3.10;;
51146;SDS011;37207;53.060;18.726;2023-07-22T06:31:09;5.10;;;3.50;;
51146;SDS011;37207;53.060;18.726;2023-07-22T06:33:36;5.40;;;4.90;;
51146;SDS011;37207;53.060;18.726;2023-07-22T06:36:03;3.40;;;3.10;;
51146;SDS011;37207;53.060;18.726;2023-07-22T06:38:29;3.50;;;2.60;;
51146;SDS011;37207;53.060;18.726;2023-07-22T06:40:56;3.00;;;2.80;;
51146;SDS011;37207;53.060;18.726;2023-07-22T06:43:23;3.20;;;2.20;;
51146;SDS011;37207;53.060;18.726;2023-07-22T06:45:50;7.70;;;4.50;;
51146;SDS011;37207;53.060;18.726;2023-07-22T06:48:16;3.70;;;3.40;;
51146;SDS011;37207;53.060;18.726;2023-07-22T06:50:47;4.20;;;3.00;;
51146;SDS011;37207;53.060;18.726;2023-07-22T06:53:16;2.00;;;1.90;;
51146;SDS011;37207;53.060;18.726;2023-07-22T06:55:49;4.30;;;2.10;;
51146;SDS011;37207;53.060;18.726;2023-07-22T06:58:18;3.30;;;2.50;;
51146;SDS011;37207;53.060;18.726;2023-07-22T07:00:45;5.50;;;2.20;;
51146;SDS011;37207;53.060;18.726;2023-07-22T07:03:12;3.90;;;3.50;;
51146;SDS011;37207;53.060;18.726;2023-07-22T07:05:39;3.70;;;3.40;;
51146;SDS011;37207;53.060;18.726;2023-07-22T07:08:08;3.40;;;2.10;;
51146;SDS011;37207;53.060;18.726;2023-07-22T07:10:37;3.20;;;3.00;;
51146;SDS011;37207;53.060;18.726;2023-07-22T07:13:05;3.70;;;3.40;;
51146;SDS011;37207;53.060;18.726;2023-07-22T07:15:32;5.00;;;4.30;;
51146;SDS011;37207;53.060;18.726;2023-07-22T07:17:58;3.50;;;2.20;;
51146;SDS011;37207;53.060;18.726;2023-07-22T07:20:25;3.70;;;2.30;;
51146;SDS011;37207;53.060;18.726;2023-07-22T07:22:51;2.20;;;2.00;;
51146;SDS011;37207;53.060;18.726;2023-07-22T07:25:18;2.00;;;1.80;;
51146;SDS011;37207;53.060;18.726;2023-07-22T07:27:45;3.60;;;2.00;;
51146;SDS011;37207;53.060;18.726;2023-07-22T07:30:14;5.80;;;2.50;;
51146;SDS011;37207;53.060;18.726;2023-07-22T07:32:41;3.90;;;3.60;;
51146;SDS011;37207;53.060;18.726;2023-07-22T07:35:07;3.40;;;3.10;;
51146;SDS011;37207;53.060;18.726;2023-07-22T07:37:34;3.80;;;1.80;;
51146;SDS011;37207;53.060;18.726;2023-07-22T07:40:01;6.00;;;2.00;;
51146;SDS011;37207;53.060;18.726;2023-07-22T07:42:28;8.10;;;2.80;;
51146;SDS011;37207;53.060;18.726;2023-07-22T07:44:55;6.00;;;2.60;;
51146;SDS011;37207;53.060;18.726;2023-07-22T07:47:21;2.10;;;1.60;;
51146;SDS011;37207;53.060;18.726;2023-07-22T07:49:48;2.10;;;1.90;;
51146;SDS011;37207;53.060;18.726;2023-07-22T07:52:15;4.30;;;2.00;;
51146;SDS011;37207;53.060;18.726;2023-07-22T07:54:42;2.50;;;1.90;;
51146;SDS011;37207;53.060;18.726;2023-07-22T07:57:08;2.70;;;2.30;;
51146;SDS011;37207;53.060;18.726;2023-07-22T07:59:36;3.10;;;2.80;;
51146;SDS011;37207;53.060;18.726;2023-07-22T08:02:02;3.40;;;3.10;;
51146;SDS011;37207;53.060;18.726;2023-07-22T08:04:30;2.80;;;2.60;;
51146;SDS011;37207;53.060;18.726;2023-07-22T08:06:57;7.40;;;1.70;;
51146;SDS011;37207;53.060;18.726;2023-07-22T08:11:52;1.90;;;1.70;;
51146;SDS011;37207;53.060;18.726;2023-07-22T08:14:19;4.90;;;1.20;;
51146;SDS011;37207;53.060;18.726;2023-07-22T08:16:46;1.70;;;1.40;;
51146;SDS011;37207;53.060;18.726;2023-07-22T08:19:14;1.90;;;1.80;;
51146;SDS011;37207;53.060;18.726;2023-07-22T08:21:41;2.60;;;2.40;;
51146;SDS011;37207;53.060;18.726;2023-07-22T08:24:08;6.30;;;1.80;;
51146;SDS011;37207;53.060;18.726;2023-07-22T08:26:35;2.60;;;0.90;;
51146;SDS011;37207;53.060;18.726;2023-07-22T08:29:02;1.60;;;1.50;;
51146;SDS011;37207;53.060;18.726;2023-07-22T08:31:29;4.10;;;1.20;;
51146;SDS011;37207;53.060;18.726;2023-07-22T08:33:56;1.50;;;1.40;;
51146;SDS011;37207;53.060;18.726;2023-07-22T08:36:23;4.00;;;1.00;;
51146;SDS011;37207;53.060;18.726;2023-07-22T08:38:49;3.50;;;1.20;;
51146;SDS011;37207;53.060;18.726;2023-07-22T08:41:16;1.20;;;0.90;;
51146;SDS011;37207;53.060;18.726;2023-07-22T08:43:44;1.00;;;0.80;;
51146;SDS011;37207;53.060;18.726;2023-07-22T08:46:12;3.00;;;1.50;;
51146;SDS011;37207;53.060;18.726;2023-07-22T08:48:38;2.80;;;1.20;;
51146;SDS011;37207;53.060;18.726;2023-07-22T08:51:15;4.80;;;1.10;;
51146;SDS011;37207;53.060;18.726;2023-07-22T08:53:44;2.80;;;1.30;;
51146;SDS011;37207;53.060;18.726;2023-07-22T08:56:12;4.60;;;0.90;;
51146;SDS011;37207;53.060;18.726;2023-07-22T08:58:38;3.70;;;0.80;;
51146;SDS011;37207;53.060;18.726;2023-07-22T09:01:07;4.70;;;1.10;;
51146;SDS011;37207;53.060;18.726;2023-07-22T09:03:34;5.90;;;1.10;;
51146;SDS011;37207;53.060;18.726;2023-07-22T09:06:01;4.30;;;1.80;;
51146;SDS011;37207;53.060;18.726;2023-07-22T09:08:30;6.00;;;3.00;;
51146;SDS011;37207;53.060;18.726;2023-07-22T09:10:57;27.50;;;4.20;;
51146;SDS011;37207;53.060;18.726;2023-07-22T09:13:23;3.30;;;1.60;;
51146;SDS011;37207;53.060;18.726;2023-07-22T09:15:53;3.60;;;2.90;;
51146;SDS011;37207;53.060;18.726;2023-07-22T09:18:20;3.60;;;1.30;;
51146;SDS011;37207;53.060;18.726;2023-07-22T09:20:47;2.60;;;0.70;;
51146;SDS011;37207;53.060;18.726;2023-07-22T09:23:14;1.90;;;0.80;;
51146;SDS011;37207;53.060;18.726;2023-07-22T09:25:41;1.30;;;1.00;;
51146;SDS011;37207;53.060;18.726;2023-07-22T09:28:08;7.60;;;0.90;;
51146;SDS011;37207;53.060;18.726;2023-07-22T09:30:36;2.70;;;0.90;;
51146;SDS011;37207;53.060;18.726;2023-07-22T09:33:08;2.00;;;0.80;;
51146;SDS011;37207;53.060;18.726;2023-07-22T09:35:51;1.80;;;0.80;;
51146;SDS011;37207;53.060;18.726;2023-07-22T09:38:24;1.40;;;1.10;;
51146;SDS011;37207;53.060;18.726;2023-07-22T09:40:52;0.70;;;0.70;;
51146;SDS011;37207;53.060;18.726;2023-07-22T09:43:19;3.00;;;0.80;;
51146;SDS011;37207;53.060;18.726;2023-07-22T09:45:46;1.40;;;0.70;;
51146;SDS011;37207;53.060;18.726;2023-07-22T09:48:15;1.80;;;0.70;;
51146;SDS011;37207;53.060;18.726;2023-07-22T09:50:41;2.50;;;0.70;;
51146;SDS011;37207;53.060;18.726;2023-07-22T09:53:08;2.40;;;0.90;;
51146;SDS011;37207;53.060;18.726;2023-07-22T09:55:42;5.10;;;1.00;;
51146;SDS011;37207;53.060;18.726;2023-07-22T09:58:11;2.20;;;0.80;;
51146;SDS011;37207;53.060;18.726;2023-07-22T10:00:42;1.90;;;0.90;;
51146;SDS011;37207;53.060;18.726;2023-07-22T10:03:17;12.60;;;1.40;;
51146;SDS011;37207;53.060;18.726;2023-07-22T10:05:46;6.00;;;1.50;;
51146;SDS011;37207;53.060;18.726;2023-07-22T10:08:17;4.70;;;1.10;;
51146;SDS011;37207;53.060;18.726;2023-07-22T10:10:45;3.00;;;1.30;;
51146;SDS011;37207;53.060;18.726;2023-07-22T10:13:12;5.90;;;1.00;;
51146;SDS011;37207;53.060;18.726;2023-07-22T10:15:39;1.80;;;1.30;;
51146;SDS011;37207;53.060;18.726;2023-07-22T10:18:06;3.20;;;1.20;;
51146;SDS011;37207;53.060;18.726;2023-07-22T10:20:35;2.30;;;1.20;;
51146;SDS011;37207;53.060;18.726;2023-07-22T10:23:02;4.40;;;1.20;;
51146;SDS011;37207;53.060;18.726;2023-07-22T10:25:30;4.50;;;1.00;;
51146;SDS011;37207;53.060;18.726;2023-07-22T10:27:59;5.20;;;1.10;;
51146;SDS011;37207;53.060;18.726;2023-07-22T10:30:26;52.10;;;3.00;;
51146;SDS011;37207;53.060;18.726;2023-07-22T10:32:52;4.00;;;1.30;;
51146;SDS011;37207;53.060;18.726;2023-07-22T10:38:16;13.00;;;2.60;;
51146;SDS011;37207;53.060;18.726;2023-07-22T10:40:46;77.70;;;4.40;;
51146;SDS011;37207;53.060;18.726;2023-07-22T10:43:18;23.80;;;3.30;;
51146;SDS011;37207;53.060;18.726;2023-07-22T10:45:52;17.70;;;3.10;;
51146;SDS011;37207;53.060;18.726;2023-07-22T10:48:20;10.50;;;3.20;;
51146;SDS011;37207;53.060;18.726;2023-07-22T10:50:53;2.80;;;2.10;;
51146;SDS011;37207;53.060;18.726;2023-07-22T10:56:08;2.00;;;1.70;;
51146;SDS011;37207;53.060;18.726;2023-07-22T11:04:05;4.60;;;2.60;;
51146;SDS011;37207;53.060;18.726;2023-07-22T11:11:54;5.60;;;2.20;;
51146;SDS011;37207;53.060;18.726;2023-07-22T11:14:26;2.40;;;2.20;;
51146;SDS011;37207;53.060;18.726;2023-07-22T11:16:52;3.30;;;2.60;;
51146;SDS011;37207;53.060;18.726;2023-07-22T11:19:21;7.10;;;2.30;;
51146;SDS011;37207;53.060;18.726;2023-07-22T11:21:50;7.40;;;2.40;;
51146;SDS011;37207;53.060;18.726;2023-07-22T11:26:45;2.40;;;1.80;;
51146;SDS011;37207;53.060;18.726;2023-07-22T11:29:13;2.20;;;2.00;;
51146;SDS011;37207;53.060;18.726;2023-07-22T11:31:41;2.80;;;1.70;;
51146;SDS011;37207;53.060;18.726;2023-07-22T11:34:17;2.00;;;1.90;;
51146;SDS011;37207;53.060;18.726;2023-07-22T11:36:53;4.10;;;1.90;;
51146;SDS011;37207;53.060;18.726;2023-07-22T11:39:21;5.20;;;1.60;;
51146;SDS011;37207;53.060;18.726;2023-07-22T11:41:50;3.20;;;1.60;;
51146;SDS011;37207;53.060;18.726;2023-07-22T11:44:18;4.10;;;1.40;;
51146;SDS011;37207;53.060;18.726;2023-07-22T11:47:02;4.60;;;1.70;;
51146;SDS011;37207;53.060;18.726;2023-07-22T11:49:31;5.00;;;1.60;;
51146;SDS011;37207;53.060;18.726;2023-07-22T11:52:01;7.80;;;2.20;;
51146;SDS011;37207;53.060;18.726;2023-07-22T11:54:29;5.20;;;2.60;;
51146;SDS011;37207;53.060;18.726;2023-07-22T11:56:56;2.80;;;2.30;;
51146;SDS011;37207;53.060;18.726;2023-07-22T11:59:39;1.70;;;1.60;;
51146;SDS011;37207;53.060;18.726;2023-07-22T12:02:17;1.60;;;1.50;;
51146;SDS011;37207;53.060;18.726;2023-07-22T12:07:25;2.80;;;1.50;;
51146;SDS011;37207;53.060;18.726;2023-07-22T12:09:54;4.10;;;1.50;;
51146;SDS011;37207;53.060;18.726;2023-07-22T12:12:39;3.50;;;1.70;;
51146;SDS011;37207;53.060;18.726;2023-07-22T12:15:19;3.60;;;1.30;;
51146;SDS011;37207;53.060;18.726;2023-07-22T12:17:48;1.60;;;1.30;;
51146;SDS011;37207;53.060;18.726;2023-07-22T12:20:23;1.60;;;1.50;;
51146;SDS011;37207;53.060;18.726;2023-07-22T12:22:54;5.80;;;1.80;;
51146;SDS011;37207;53.060;18.726;2023-07-22T12:27:49;1.70;;;1.60;;
51146;SDS011;37207;53.060;18.726;2023-07-22T12:30:16;1.80;;;1.70;;
51146;SDS011;37207;53.060;18.726;2023-07-22T12:32:43;4.20;;;1.60;;
51146;SDS011;37207;53.060;18.726;2023-07-22T12:35:09;4.40;;;1.60;;
51146;SDS011;37207;53.060;18.726;2023-07-22T12:37:36;4.90;;;1.70;;
51146;SDS011;37207;53.060;18.726;2023-07-22T12:40:03;1.60;;;1.40;;
51146;SDS011;37207;53.060;18.726;2023-07-22T12:42:33;3.30;;;1.30;;
51146;SDS011;37207;53.060;18.726;2023-07-22T12:45:01;3.60;;;1.60;;
51146;SDS011;37207;53.060;18.726;2023-07-22T12:47:28;2.40;;;1.70;;
51146;SDS011;37207;53.060;18.726;2023-07-22T12:49:55;3.30;;;1.70;;
51146;SDS011;37207;53.060;18.726;2023-07-22T12:52:21;1.70;;;1.60;;
51146;SDS011;37207;53.060;18.726;2023-07-22T12:54:48;1.70;;;1.30;;
51146;SDS011;37207;53.060;18.726;2023-07-22T12:57:15;2.70;;;1.60;;
51146;SDS011;37207;53.060;18.726;2023-07-22T12:59:41;2.00;;;1.50;;
51146;SDS011;37207;53.060;18.726;2023-07-22T13:02:08;1.70;;;1.60;;
51146;SDS011;37207;53.060;18.726;2023-07-22T13:04:34;2.00;;;1.80;;
51146;SDS011;37207;53.060;18.726;2023-07-22T13:07:01;1.60;;;1.50;;
51146;SDS011;37207;53.060;18.726;2023-07-22T13:09:28;1.80;;;1.60;;
51146;SDS011;37207;53.060;18.726;2023-07-22T13:11:54;1.80;;;1.20;;
51146;SDS011;37207;53.060;18.726;2023-07-22T13:14:21;1.80;;;1.50;;
51146;SDS011;37207;53.060;18.726;2023-07-22T13:16:47;1.40;;;1.30;;
51146;SDS011;37207;53.060;18.726;2023-07-22T13:19:14;2.00;;;1.50;;
51146;SDS011;37207;53.060;18.726;2023-07-22T13:21:40;1.40;;;1.30;;
51146;SDS011;37207;53.060;18.726;2023-07-22T13:24:07;2.70;;;1.70;;
51146;SDS011;37207;53.060;18.726;2023-07-22T13:26:34;1.70;;;1.60;;
51146;SDS011;37207;53.060;18.726;2023-07-22T13:29:02;4.20;;;1.70;;
51146;SDS011;37207;53.060;18.726;2023-07-22T13:31:28;1.60;;;1.50;;
51146;SDS011;37207;53.060;18.726;2023-07-22T13:33:55;2.30;;;1.70;;
51146;SDS011;37207;53.060;18.726;2023-07-22T13:36:21;5.30;;;1.50;;
51146;SDS011;37207;53.060;18.726;2023-07-22T13:38:48;1.80;;;1.70;;
51146;SDS011;37207;53.060;18.726;2023-07-22T13:41:14;3.10;;;1.80;;
51146;SDS011;37207;53.060;18.726;2023-07-22T13:43:41;2.20;;;1.50;;
51146;SDS011;37207;53.060;18.726;2023-07-22T13:46:07;6.90;;;1.50;;
51146;SDS011;37207;53.060;18.726;2023-07-22T13:48:34;1.80;;;1.70;;
51146;SDS011;37207;53.060;18.726;2023-07-22T13:51:01;3.90;;;1.70;;
51146;SDS011;37207;53.060;18.726;2023-07-22T13:53:27;2.00;;;1.90;;
51146;SDS011;37207;53.060;18.726;2023-07-22T13:55:56;2.20;;;1.50;;
51146;SDS011;37207;53.060;18.726;2023-07-22T13:58:24;1.90;;;1.60;;
51146;SDS011;37207;53.060;18.726;2023-07-22T14:00:51;1.80;;;1.70;;
51146;SDS011;37207;53.060;18.726;2023-07-22T14:03:18;3.40;;;2.00;;
51146;SDS011;37207;53.060;18.726;2023-07-22T14:05:45;2.00;;;1.90;;
51146;SDS011;37207;53.060;18.726;2023-07-22T14:08:14;2.90;;;1.60;;
51146;SDS011;37207;53.060;18.726;2023-07-22T14:10:41;3.80;;;3.50;;
51146;SDS011;37207;53.060;18.726;2023-07-22T14:13:08;2.00;;;1.80;;
51146;SDS011;37207;53.060;18.726;2023-07-22T14:15:35;2.10;;;1.90;;
51146;SDS011;37207;53.060;18.726;2023-07-22T14:18:02;2.00;;;1.70;;
51146;SDS011;37207;53.060;18.726;2023-07-22T14:20:29;1.80;;;1.70;;
51146;SDS011;37207;53.060;18.726;2023-07-22T14:22:57;11.10;;;1.80;;
51146;SDS011;37207;53.060;18.726;2023-07-22T14:25:24;1.70;;;1.60;;
51146;SDS011;37207;53.060;18.726;2023-07-22T14:27:50;1.70;;;1.60;;
51146;SDS011;37207;53.060;18.726;2023-07-22T14:30:17;4.00;;;1.40;;
51146;SDS011;37207;53.060;18.726;2023-07-22T14:32:43;3.00;;;1.70;;
51146;SDS011;37207;53.060;18.726;2023-07-22T14:35:10;3.80;;;2.00;;
51146;SDS011;37207;53.060;18.726;2023-07-22T14:37:36;1.90;;;1.80;;
51146;SDS011;37207;53.060;18.726;2023-07-22T14:40:04;2.80;;;2.10;;
51146;SDS011;37207;53.060;18.726;2023-07-22T14:42:35;2.20;;;1.80;;
51146;SDS011;37207;53.060;18.726;2023-07-22T14:45:01;2.00;;;1.90;;
51146;SDS011;37207;53.060;18.726;2023-07-22T14:47:28;2.40;;;2.20;;
51146;SDS011;37207;53.060;18.726;2023-07-22T14:49:54;2.30;;;2.20;;
51146;SDS011;37207;53.060;18.726;2023-07-22T14:52:21;3.30;;;1.80;;
51146;SDS011;37207;53.060;18.726;2023-07-22T14:54:49;2.40;;;1.80;;
51146;SDS011;37207;53.060;18.726;2023-07-22T14:57:18;3.30;;;1.80;;
51146;SDS011;37207;53.060;18.726;2023-07-22T14:59:45;2.10;;;2.00;;
51146;SDS011;37207;53.060;18.726;2023-07-22T15:02:13;3.30;;;1.80;;